Skip Navigation Links
NOAA logo - Click to go to the NOAA homepage
NOAA's National Weather Service
Alaska Aviation Weather Unit
  NWS logo - Click to go to the NWS homepage
Left Navbar Graphic     01 AKDT = 09 GMT

   
NOAA is celebrating 200 years of science, service, and stewardship. Visit the NOAA 200th celebration Web site to learn more.
USA.gov is the U.S. Government's official Web portal to all Federal, state and local government Web resources and services.
Facebook
NWS on Facebook

Important Change Regarding the AAWU Web Presence

 

Over the last several months, the AAWU has been working to navigate its webpages to a nationally supported server. Security, as well as other needs, have necessitated the change.  We have been given an extension for the site changeover while we diligently work at addressing feedback received. As of July 14, 2017, aawu.arh.noaa.gov will be discontinued. The new AAWU web address is weather.gov/aawu. It is now live and will run in-parallel with the old site until it is discontinued on July 14, 2017. Please continue to send any feedback or questions regarding the new webpages to nws.ar.aawu.webauthors@noaa.gov.  Thank you for your patience during this time of transition.
AAWU Home :: Display TAF Add Bookmark
TAF PAPG 190524Z 1906/2006  VRB03KT P6SM -SHRA SCT006 SCT025 OVC035
      TEMPO 1906/1910 6SM -SHRA BR BKN006 OVC025
     FM191000 VRB03KT 4SM -SHRA BR FEW006 SCT010 OVC025
     FM192100 10006KT P6SM -SHRA FEW006 SCT010 OVC025
      AMD LTD TO CLD VIS AND WIND 1906/1915=

7435
FTAK31 PAJN 190524
TAFAYA
TAF
SPECI PAPG 190328Z 00000KT 10SM FEW023 BKN036 OVC047 11/11 A3005 RMK AO2
     RAE27 P0011=

METAR PAPG 190356Z 29003KT 10SM FEW014 BKN036 BKN060 11/11 A3006 RMK
 AO2 RAE27 SLP182 P0011 T01110106=

SPECI PAPG 190416Z 00000KT 9SM -RA SCT008 SCT065 BKN080 11/11 A3006 RMK
     AO2 RAB07 P0000=

SPECI PAPG 190425Z 00000KT 10SM BKN008 OVC080 11/11 A3006 RMK AO2
     RAB07E24 P0000=

SPECI PAPG 190432Z 00000KT 10SM -RA SCT008 SCT065 BKN080 11/11 A3007 RMK
     AO2 RAB07 P0001=

METAR PAPG 190456Z 00000KT 10SM -RA BKN008 BKN025 11/11 A3007 RMK AO2
     RAB07 SLP186 P0002 T01110106=

SPECI PAPG 190503Z 19003KT 10SM FEW006 BKN025 11/11 A3007 RMK AO2
     RAE0458 P0000=

SPECI PAPG 190510Z 00000KT 10SM SCT025 11/11 A3007 RMK AO2 RAE0458
     P0000=

SPECI PAPG 190521Z 00000KT 10SM FEW001 BKN025 11/10 A3007 RMK AO2
     RAE0458 P0000=

SPECI PAPG 190533Z 24003KT 10SM FEW001 SCT023 BKN055 11/10 A3008 RMK AO2
     RAE0458 P0000=

METAR PAPG 190556Z 00000KT 10SM FEW020 BKN030 OVC055 11/10 A3008 RMK
 AO2 RAE0458 SLP189 P0000 60036 T01060100 10117 20106 51011=

METAR PAPG 190656Z AUTO 00000KT 10SM FEW030 BKN075 11/10 A3008 RMK
 AO2 SLP191 T01060100=

PAPG 190729Z AUTO 00000KT 10SM SCT002 SCT030 OVC070 10/10 A3008
     RMK AO2=

SPECI PAPG 190738Z AUTO 00000KT 9SM BKN002 OVC065 11/10 A3009 RMK
 AO2=

METAR PAPG 190756Z AUTO 27003KT 6SM BR BKN002 OVC070 11/10 A3009 RMK
 AO2 SLP194 T01060100=

SPECI PAPG 190830Z AUTO 00000KT 10SM SCT002 BKN035 OVC055 11/10 A3010
     RMK AO2=

METAR PAPG 190856Z AUTO 00000KT 8SM -RA FEW009 BKN037 OVC055 11/10
 A3009 RMK AO2 RAB39 SLP194 P0001 60001 T01060100 401280100 50005=


NOAA's National Weather Service
Alaska Aviation Weather Unit
6930 Sand Lake Road
Anchorage, AK 99502-1845
Disclaimer
Credits
Glossary
Privacy Policy
About Us
Career Opportunities
Contact AAWU Internet Services Site last modified: April, 17th 2012